HEMA Airport Information

Runway Information
Runway 15 Length 9843 ft width 148 ft
Elevation 247 ft Threshold 0 ft Heading 150
Runway 33 Length 9843 ft Width 148 ft
Elevation 233 ft Threshold 0 ft Heading 330
Airport Frequencies
Type APP Name APP Frequency 121 MHZ
Type EMR Name FIRE Frequency 121.9 MHZ
Type GND Name GND Frequency 121.9 MHZ
Type TWR Name TWR Frequency 121 MHZ
Airport Navaids
Type VOR-DME Name Marsa Alam Frequency 115500 KHZ
Airport Weather Information & NOTAM
ADDS - METARS form results

(0158 UTC 22 January 2020)
Data provider http://aviationweather.gov/metar/data/
 
METAR text: HEMA 220100Z 31016KT CAVOK 14/M01 Q1019 NOSIG
Conditions at: HEMA (MARSA ALAM INTL , EG) observed 0100 UTC 22 January 2020
Temperature: 14.0°C (57°F)
Dewpoint: -1.0°C (30°F) [RH = 36%]
Pressure (altimeter): 30.09 inches Hg (1019.0 mb)
Winds: from the NW (310 degrees) at 18 MPH (16 knots; 8.2 m/s)
Visibility: 6 or more miles (10+ km)
Ceiling: ceiling and visibility are OK
Clouds: unknown
Weather: no significant weather observed at this time

Forecast for: HEMA (MARSA ALAM INTL , EG)
Text: TAF HEMA 212300Z 2200/2306 30008G20KT CAVOK
Forecast period: 0000 UTC 22 January 2020 to 0600 UTC 23 January 2020
Forecast type: FROM: standard forecast or significant change
Winds: from the WNW (300 degrees) at 9 MPH (8 knots; 4.1 m/s)
gusting to 23 MPH (20 knots; 10.3 m/s)
Visibility: 6 or more miles 10+ km)
Ceiling: unknown
Clouds: missing
Weather: NSW  (no significant weather)